createdAt,value
2018-02-01T00:00:42.193Z,52.50
2018-02-01T00:01:47.798Z,42.00
2018-02-01T00:02:52.314Z,47.50
2018-02-01T00:03:56.574Z,43.00
2018-02-01T00:05:01.566Z,41.00
2018-02-01T00:06:05.848Z,46.50
2018-02-01T00:07:09.971Z,43.00
2018-02-01T00:08:14.144Z,37.50
2018-02-01T00:09:18.666Z,39.00
2018-02-01T00:10:22.812Z,43.50
2018-02-01T00:11:27.013Z,41.00
2018-02-01T00:12:31.282Z,40.00
2018-02-01T00:13:35.726Z,42.00
2018-02-01T00:14:39.937Z,33.00
2018-02-01T00:15:44.975Z,50.50
2018-02-01T00:16:49.576Z,42.50
2018-02-01T00:17:53.769Z,40.50
2018-02-01T00:18:57.879Z,41.50
2018-02-01T00:20:02.104Z,35.00
2018-02-01T00:21:06.589Z,44.50
2018-02-01T00:22:16.575Z,46.00
2018-02-01T00:23:20.830Z,40.50
2018-02-01T00:24:25.534Z,43.00
2018-02-01T00:25:29.750Z,44.50
2018-02-01T00:26:33.939Z,45.00
2018-02-01T00:27:38.198Z,43.50
2018-02-01T00:28:43.042Z,45.50
2018-02-01T00:29:47.303Z,40.00
2018-02-01T00:30:51.725Z,41.00
2018-02-01T00:31:55.975Z,39.50
2018-02-01T00:33:00.358Z,45.50
2018-02-01T00:34:04.876Z,40.00
2018-02-01T00:35:09.018Z,53.00
2018-02-01T00:36:13.500Z,41.50
2018-02-01T00:37:17.862Z,44.00
2018-02-01T00:38:22.043Z,39.50
2018-02-01T00:39:27.111Z,44.00
2018-02-01T00:40:31.598Z,42.00
2018-02-01T00:41:35.849Z,42.00
2018-02-01T00:42:40.031Z,37.00
2018-02-01T00:43:44.225Z,33.50
2018-02-01T00:44:48.487Z,43.50
2018-02-01T00:45:53.046Z,48.50
2018-02-01T00:46:57.324Z,42.50
2018-02-01T00:48:04.570Z,51.50
2018-02-01T00:49:08.729Z,43.00
2018-02-01T00:50:12.939Z,46.00
2018-02-01T00:51:17.093Z,40.00
2018-02-01T00:52:21.655Z,44.50
2018-02-01T00:53:26.799Z,49.00
2018-02-01T00:54:31.052Z,40.00
2018-02-01T00:55:35.241Z,42.50
2018-02-01T00:56:39.515Z,56.50
2018-02-01T00:57:43.738Z,45.00
2018-02-01T00:58:48.186Z,40.00
2018-02-01T00:59:52.407Z,46.50
2018-02-01T01:00:56.938Z,53.50
2018-02-01T01:02:01.126Z,47.00
2018-02-01T01:03:05.332Z,50.00
2018-02-01T01:04:09.569Z,46.00
2018-02-01T01:05:14.127Z,43.00
2018-02-01T01:06:18.267Z,47.00
2018-02-01T01:07:22.397Z,41.00
2018-02-01T01:08:26.575Z,38.00
2018-02-01T01:09:31.133Z,46.00
2018-02-01T01:10:35.596Z,36.00
2018-02-01T01:11:39.835Z,45.00
2018-02-01T01:12:44.007Z,40.00
2018-02-01T01:13:49.211Z,37.00
2018-02-01T01:14:53.398Z,42.50
2018-02-01T01:15:58.018Z,46.50
2018-02-01T01:17:02.645Z,40.50
2018-02-01T01:18:06.885Z,43.00
2018-02-01T01:19:11.007Z,43.00
2018-02-01T01:20:15.204Z,40.50
2018-02-01T01:21:19.344Z,44.50
2018-02-01T01:22:23.699Z,41.50
2018-02-01T01:23:28.146Z,44.00
2018-02-01T01:24:32.315Z,40.50
2018-02-01T01:25:36.484Z,39.00
2018-02-01T01:26:40.625Z,39.00
2018-02-01T01:27:44.848Z,40.00
2018-02-01T01:28:48.987Z,52.00
2018-02-01T01:29:53.925Z,47.00
2018-02-01T01:30:58.644Z,51.00
2018-02-01T01:32:02.798Z,42.00
2018-02-01T01:33:07.051Z,37.50
2018-02-01T01:34:11.226Z,39.50
2018-02-01T01:35:15.322Z,46.50
2018-02-01T01:36:19.806Z,40.50
2018-02-01T01:37:24.043Z,50.00
2018-02-01T01:38:28.367Z,54.50
2018-02-01T01:39:32.540Z,54.50
2018-02-01T01:40:37.635Z,66.50
2018-02-01T01:41:41.816Z,55.50
2018-02-01T01:42:46.349Z,66.00
2018-02-01T01:43:51.355Z,57.50
2018-02-01T01:44:55.506Z,43.50
2018-02-01T01:46:08.396Z,46.00
2018-02-01T01:47:12.800Z,59.00
2018-02-01T01:48:17.044Z,59.50
2018-02-01T01:49:21.532Z,41.00
2018-02-01T01:50:26.900Z,48.50
2018-02-01T01:51:31.180Z,46.50
2018-02-01T01:52:35.348Z,38.50
2018-02-01T01:53:39.555Z,37.00
2018-02-01T01:54:43.985Z,39.50
2018-02-01T01:55:48.097Z,38.00
2018-02-01T01:56:52.822Z,40.50
2018-02-01T01:57:56.986Z,42.00
2018-02-01T01:59:01.220Z,43.50
2018-02-01T02:00:07.104Z,38.50
2018-02-01T02:01:11.957Z,45.00
2018-02-01T02:02:16.616Z,60.00
2018-02-01T02:03:20.780Z,40.50
2018-02-01T02:04:25.191Z,50.50
2018-02-01T02:05:30.258Z,44.00
2018-02-01T02:06:38.075Z,53.50
2018-02-01T02:07:42.533Z,37.00
2018-02-01T02:08:46.710Z,36.00
2018-02-01T02:09:50.977Z,32.00
2018-02-01T02:10:55.569Z,42.50
2018-02-01T02:11:59.766Z,38.50
2018-02-01T02:13:10.702Z,46.50
2018-02-01T02:14:20.283Z,41.00
2018-02-01T02:15:25.911Z,54.50
2018-02-01T02:16:30.071Z,47.00
2018-02-01T02:17:34.285Z,51.50
2018-02-01T02:18:38.587Z,63.50
2018-02-01T02:19:43.013Z,42.00
2018-02-01T02:20:47.289Z,54.50
2018-02-01T02:21:51.498Z,40.00
2018-02-01T02:22:56.496Z,48.00
2018-02-01T02:24:00.726Z,55.50
2018-02-01T02:25:05.283Z,53.00
2018-02-01T02:26:09.503Z,47.00
2018-02-01T02:27:13.631Z,61.50
2018-02-01T02:28:17.835Z,69.50
2018-02-01T02:29:22.299Z,62.50
2018-02-01T02:30:27.014Z,53.00
2018-02-01T02:31:31.563Z,65.00
2018-02-01T02:32:35.806Z,77.50
2018-02-01T02:33:40.385Z,76.50
2018-02-01T02:34:44.607Z,60.00
2018-02-01T02:35:48.837Z,68.00
2018-02-01T02:36:53.055Z,62.00
2018-02-01T02:37:58.211Z,63.50
2018-02-01T02:39:02.348Z,63.00
2018-02-01T02:40:06.518Z,58.00
2018-02-01T02:41:10.642Z,69.00
2018-02-01T02:42:14.767Z,56.50
2018-02-01T02:43:19.296Z,64.50
2018-02-01T02:44:23.397Z,55.50
2018-02-01T02:45:28.995Z,52.50
2018-02-01T02:46:33.203Z,60.50
2018-02-01T02:47:37.335Z,68.00
2018-02-01T02:48:41.487Z,64.00
2018-02-01T02:51:27.807Z,73.00
2018-02-01T02:52:32.095Z,66.00
2018-02-01T02:53:36.453Z,58.00
2018-02-01T02:54:40.775Z,57.00
2018-02-01T02:55:45.288Z,63.50
2018-02-01T02:56:50.077Z,52.00
2018-02-01T02:57:54.550Z,53.50
2018-02-01T02:59:00.388Z,52.50
2018-02-01T03:00:08.173Z,60.00
2018-02-01T03:01:14.523Z,70.50
2018-02-01T03:02:21.940Z,42.50
2018-02-01T03:03:34.210Z,37.50
2018-02-01T03:04:39.390Z,50.50
2018-02-01T03:05:43.643Z,42.00
2018-02-01T03:06:47.848Z,49.50
2018-02-01T03:07:52.078Z,45.50
2018-02-01T03:08:57.968Z,50.00
2018-02-01T03:10:05.529Z,43.50
2018-02-01T03:11:11.258Z,37.50
2018-02-01T03:12:19.564Z,46.00
2018-02-01T03:13:24.657Z,63.00
2018-02-01T03:14:30.186Z,44.50
2018-02-01T03:15:35.762Z,62.00
2018-02-01T03:16:40.455Z,51.50
2018-02-01T03:17:44.635Z,40.00
2018-02-01T03:18:48.919Z,49.00
2018-02-01T03:19:53.132Z,68.50
2018-02-01T03:20:57.618Z,44.00
2018-02-01T03:22:02.867Z,35.00
2018-02-01T03:23:07.799Z,44.00
2018-02-01T03:24:12.589Z,62.00
2018-02-01T03:25:16.890Z,48.00
2018-02-01T03:26:24.442Z,47.00
2018-02-01T03:27:33.005Z,38.00
2018-02-01T03:28:37.165Z,43.50
2018-02-01T03:29:41.783Z,43.50
2018-02-01T03:30:45.957Z,43.50
2018-02-01T03:31:50.640Z,51.00
2018-02-01T03:32:54.762Z,50.50
2018-02-01T03:33:58.876Z,62.00
2018-02-01T03:35:03.112Z,48.00
2018-02-01T03:36:07.682Z,41.50
2018-02-01T03:37:11.847Z,60.50
2018-02-01T03:38:16.026Z,51.00
2018-02-01T03:41:23.993Z,57.00
2018-02-01T03:42:28.845Z,76.00
2018-02-01T03:43:32.968Z,63.00
2018-02-01T03:44:37.157Z,55.50
2018-02-01T03:45:41.509Z,67.00
2018-02-01T03:46:45.919Z,58.50
2018-02-01T03:47:50.007Z,53.50
2018-02-01T03:48:54.109Z,54.00
2018-02-01T03:49:58.211Z,57.00
2018-02-01T03:51:02.402Z,54.00
2018-02-01T03:52:06.572Z,73.50
2018-02-01T03:53:10.997Z,49.00
2018-02-01T03:54:15.255Z,52.50
2018-02-01T03:55:19.471Z,72.00
2018-02-01T03:56:23.671Z,50.00
2018-02-01T03:57:27.763Z,73.50
2018-02-01T03:58:31.949Z,72.00
2018-02-01T03:59:36.490Z,52.00
2018-02-01T04:00:40.656Z,59.50
2018-02-01T04:01:44.841Z,55.00
2018-02-01T04:02:49.002Z,52.50
2018-02-01T04:03:53.192Z,49.50
2018-02-01T04:04:57.300Z,66.50
2018-02-01T04:06:01.528Z,42.50
2018-02-01T04:07:05.719Z,53.50
2018-02-01T04:08:09.853Z,52.50
2018-02-01T04:09:14.042Z,60.00
2018-02-01T04:10:18.180Z,69.00
2018-02-01T04:11:22.340Z,65.00
2018-02-01T04:12:27.283Z,54.00
2018-02-01T04:13:31.373Z,48.50
2018-02-01T04:14:35.449Z,69.00
2018-02-01T04:15:40.197Z,67.50
2018-02-01T04:16:44.276Z,70.00
2018-02-01T04:17:48.582Z,65.50
2018-02-01T04:18:52.950Z,61.50
2018-02-01T04:19:57.971Z,61.50
2018-02-01T04:21:02.063Z,69.50
2018-02-01T04:22:06.218Z,49.00
2018-02-01T04:23:10.476Z,45.00
2018-02-01T04:24:14.870Z,56.00
2018-02-01T04:25:19.587Z,49.00
2018-02-01T04:26:23.733Z,65.50
2018-02-01T04:27:28.344Z,57.50
2018-02-01T04:28:32.528Z,58.50
2018-02-01T04:29:36.762Z,53.50
2018-02-01T04:30:42.233Z,67.50
2018-02-01T04:31:46.371Z,60.00
2018-02-01T04:32:50.533Z,55.50
2018-02-01T04:33:55.291Z,61.00
2018-02-01T04:35:00.306Z,67.00
2018-02-01T04:36:04.616Z,62.50
2018-02-01T04:37:10.183Z,52.50
2018-02-01T04:38:14.308Z,63.50
2018-02-01T04:39:18.468Z,60.00
2018-02-01T04:40:22.662Z,57.00
2018-02-01T04:41:27.627Z,39.50
2018-02-01T04:42:31.714Z,77.50
2018-02-01T04:43:36.189Z,51.50
2018-02-01T04:44:40.521Z,59.00
2018-02-01T04:45:44.699Z,61.50
2018-02-01T04:46:48.814Z,57.00
2018-02-01T04:47:52.915Z,61.50
2018-02-01T04:48:57.837Z,51.50
2018-02-01T04:50:03.350Z,69.00
2018-02-01T04:51:07.493Z,59.50
2018-02-01T04:52:11.604Z,69.00
2018-02-01T04:53:15.917Z,56.50
2018-02-01T04:54:20.126Z,42.50
2018-02-01T04:55:25.312Z,51.00
2018-02-01T04:56:29.468Z,50.00
2018-02-01T04:57:33.555Z,51.50
2018-02-01T04:58:37.899Z,54.50
2018-02-01T04:59:42.164Z,59.00
2018-02-01T05:00:47.014Z,58.50
2018-02-01T05:01:51.148Z,60.00
2018-02-01T05:02:55.308Z,58.50
2018-02-01T05:03:59.476Z,53.00
2018-02-01T05:05:03.636Z,51.00
2018-02-01T05:06:07.915Z,63.50
2018-02-01T05:07:12.009Z,50.50
2018-02-01T05:08:16.134Z,56.50
2018-02-01T05:09:20.599Z,47.50
2018-02-01T05:10:24.729Z,59.50
2018-02-01T05:11:28.898Z,62.00
2018-02-01T05:12:33.014Z,63.00
2018-02-01T05:13:37.171Z,41.50
2018-02-01T05:14:41.345Z,48.00
2018-02-01T05:15:45.918Z,48.50
2018-02-01T05:16:50.000Z,47.00
2018-02-01T05:17:54.097Z,44.00
2018-02-01T05:18:59.049Z,64.00
2018-02-01T05:20:03.210Z,40.00
2018-02-01T05:21:07.566Z,51.50
2018-02-01T05:22:13.723Z,61.00
2018-02-01T05:23:18.709Z,52.00
2018-02-01T05:24:22.903Z,44.00
2018-02-01T05:25:27.017Z,54.50
2018-02-01T05:26:31.736Z,63.50
2018-02-01T05:27:35.944Z,52.00
2018-02-01T05:28:40.504Z,44.50
2018-02-01T05:29:44.726Z,63.50
2018-02-01T05:30:48.815Z,61.00
2018-02-01T05:31:53.034Z,57.00
2018-02-01T05:32:57.752Z,58.50
2018-02-01T05:34:01.906Z,69.00
2018-02-01T05:35:07.487Z,60.50
2018-02-01T05:36:11.646Z,52.50
2018-02-01T05:37:15.789Z,78.50
2018-02-01T05:38:19.954Z,64.00
2018-02-01T05:39:24.125Z,56.50
2018-02-01T05:40:28.749Z,70.00
2018-02-01T05:41:33.948Z,58.50
2018-02-01T05:42:38.119Z,58.00
2018-02-01T05:43:42.218Z,57.50
2018-02-01T05:44:46.496Z,87.00
2018-02-01T05:45:50.594Z,53.50
2018-02-01T05:46:54.749Z,57.50
2018-02-01T05:47:59.290Z,66.00
2018-02-01T05:49:03.562Z,50.00
2018-02-01T05:50:07.783Z,64.00
2018-02-01T05:51:11.877Z,60.00
2018-02-01T05:52:16.099Z,44.00
2018-02-01T05:53:20.333Z,70.50
2018-02-01T05:54:24.736Z,55.50
2018-02-01T05:55:28.946Z,50.50
2018-02-01T05:56:33.115Z,52.50
2018-02-01T05:57:37.200Z,59.00
2018-02-01T05:58:41.369Z,53.00
2018-02-01T05:59:45.574Z,59.50
2018-02-01T06:00:50.073Z,53.50
2018-02-01T06:01:54.151Z,63.50
2018-02-01T06:02:58.256Z,56.50
2018-02-01T06:04:02.540Z,45.50
2018-02-01T06:05:06.716Z,64.00
2018-02-01T06:06:10.925Z,48.00
2018-02-01T06:07:15.085Z,64.00
2018-02-01T06:08:19.324Z,60.00
2018-02-01T06:09:23.626Z,46.00
2018-02-01T06:10:27.805Z,44.00
2018-02-01T06:11:32.592Z,45.50
2018-02-01T06:12:36.749Z,52.00
2018-02-01T06:13:44.380Z,65.00
2018-02-01T06:14:48.515Z,58.50
2018-02-01T06:15:52.643Z,58.50
2018-02-01T06:16:56.852Z,48.00
2018-02-01T06:18:01.997Z,54.00
2018-02-01T06:19:06.160Z,52.00
2018-02-01T06:20:10.676Z,65.00
2018-02-01T06:21:14.820Z,60.50
2018-02-01T06:22:18.923Z,70.50
2018-02-01T06:23:23.112Z,62.50
2018-02-01T06:24:27.378Z,59.50
2018-02-01T06:25:32.600Z,58.00
2018-02-01T06:26:37.072Z,61.00
2018-02-01T06:27:41.185Z,58.50
2018-02-01T06:28:45.407Z,72.50
2018-02-01T06:29:49.626Z,65.00
2018-02-01T06:30:53.781Z,65.50
2018-02-01T06:32:00.400Z,73.00
2018-02-01T06:33:05.519Z,64.00
2018-02-01T06:34:09.779Z,50.00
2018-02-01T06:35:13.942Z,44.00
2018-02-01T06:36:18.078Z,61.50
2018-02-01T06:37:22.353Z,49.50
2018-02-01T06:38:27.939Z,64.50
2018-02-01T06:39:32.073Z,46.50
2018-02-01T06:40:36.262Z,57.50
2018-02-01T06:41:40.495Z,69.50
2018-02-01T06:43:56.206Z,68.00
2018-02-01T06:45:01.297Z,58.50
2018-02-01T06:46:05.741Z,64.00
2018-02-01T06:47:10.197Z,66.50
2018-02-01T06:48:14.337Z,60.00
2018-02-01T06:49:18.476Z,67.50
2018-02-01T06:50:22.674Z,66.00
2018-02-01T06:51:26.914Z,65.00
2018-02-01T06:52:31.860Z,52.50
2018-02-01T06:53:36.026Z,55.50
2018-02-01T06:54:40.320Z,69.00
2018-02-01T06:55:44.526Z,52.00
2018-02-01T06:56:48.728Z,49.00
2018-02-01T06:57:52.913Z,62.00
2018-02-01T06:58:57.068Z,59.00
2018-02-01T07:00:01.371Z,72.00
2018-02-01T07:01:07.152Z,68.50
2018-02-01T07:02:11.522Z,66.50
2018-02-01T07:03:15.790Z,71.50
2018-02-01T07:04:19.999Z,72.50
2018-02-01T07:05:24.282Z,54.00
2018-02-01T07:06:28.406Z,63.50
2018-02-01T07:07:33.522Z,55.00
2018-02-01T07:08:38.064Z,63.00
2018-02-01T07:09:42.305Z,47.50
2018-02-01T07:10:46.424Z,62.50
2018-02-01T07:11:50.617Z,71.50
2018-02-01T07:12:55.341Z,42.00
2018-02-01T07:13:59.516Z,45.00
2018-02-01T07:15:06.880Z,69.50
2018-02-01T07:16:11.452Z,53.00
2018-02-01T07:17:16.081Z,50.00
2018-02-01T07:18:20.259Z,53.50
2018-02-01T07:19:25.212Z,52.00
2018-02-01T07:20:30.356Z,51.50
2018-02-01T07:21:34.517Z,61.50
2018-02-01T07:22:39.017Z,58.50
2018-02-01T07:23:43.189Z,52.00
2018-02-01T07:24:47.370Z,61.00
2018-02-01T07:25:51.718Z,54.50
2018-02-01T07:26:56.681Z,75.00
2018-02-01T07:28:00.806Z,58.00
2018-02-01T07:29:05.041Z,56.50
2018-02-01T07:30:09.720Z,59.50
2018-02-01T07:31:13.867Z,57.50
2018-02-01T07:32:18.045Z,76.50
2018-02-01T07:33:22.284Z,57.50
2018-02-01T07:34:26.513Z,54.50
2018-02-01T07:35:31.254Z,48.50
2018-02-01T07:36:35.437Z,46.00
2018-02-01T07:37:39.680Z,78.00
2018-02-01T07:38:44.194Z,63.00
2018-02-01T07:39:48.500Z,52.00
2018-02-01T07:40:52.754Z,56.50
2018-02-01T07:41:56.935Z,62.50
2018-02-01T07:43:02.064Z,78.50
2018-02-01T07:44:06.709Z,61.50
2018-02-01T07:45:13.984Z,68.00
2018-02-01T07:46:18.375Z,78.00
2018-02-01T07:47:22.584Z,64.50
2018-02-01T07:48:26.762Z,56.50
2018-02-01T07:49:31.558Z,60.00
2018-02-01T07:50:35.746Z,60.00
2018-02-01T07:51:39.929Z,61.00
2018-02-01T07:52:44.101Z,74.50
2018-02-01T07:53:48.395Z,63.50
2018-02-01T07:54:52.626Z,59.00
2018-02-01T07:55:56.762Z,72.00
2018-02-01T07:57:00.903Z,62.00
2018-02-01T07:58:05.505Z,64.50
2018-02-01T07:59:09.671Z,75.50
2018-02-01T08:00:16.724Z,61.50
2018-02-01T08:01:20.990Z,63.50
2018-02-01T08:02:25.178Z,77.50
2018-02-01T08:03:29.987Z,52.50
2018-02-01T08:04:35.513Z,55.50
2018-02-01T08:05:39.715Z,61.50
2018-02-01T08:06:44.048Z,59.00
2018-02-01T08:07:48.233Z,79.00
2018-02-01T08:08:52.481Z,56.00
2018-02-01T08:09:56.593Z,66.50
2018-02-01T08:11:01.132Z,50.50
2018-02-01T08:12:05.294Z,66.50
2018-02-01T08:13:10.064Z,58.50
2018-02-01T08:14:14.265Z,70.50
2018-02-01T08:15:19.536Z,69.00
2018-02-01T08:16:24.297Z,71.00
2018-02-01T08:17:29.441Z,72.00
2018-02-01T08:18:33.598Z,65.00
2018-02-01T08:19:37.933Z,67.00
2018-02-01T08:20:42.090Z,97.00
2018-02-01T08:21:46.351Z,58.50
2018-02-01T08:22:50.509Z,70.50
2018-02-01T08:23:54.706Z,64.50
2018-02-01T08:24:58.977Z,77.00
2018-02-01T08:26:03.307Z,64.00
2018-02-01T08:27:07.540Z,82.00
2018-02-01T08:28:11.728Z,71.00
2018-02-01T08:29:16.575Z,72.50
2018-02-01T08:30:22.201Z,89.00
2018-02-01T08:31:26.935Z,69.50
2018-02-01T08:32:31.318Z,78.00
2018-02-01T08:33:35.531Z,69.50
2018-02-01T08:34:41.374Z,78.00
2018-02-01T08:35:45.609Z,97.50
2018-02-01T08:36:49.773Z,72.00
2018-02-01T08:37:54.082Z,69.00
2018-02-01T08:38:58.278Z,79.00
2018-02-01T08:40:02.456Z,74.00
2018-02-01T08:41:06.715Z,64.00
2018-02-01T08:42:11.225Z,48.00
2018-02-01T08:43:15.513Z,53.00
2018-02-01T08:44:19.710Z,69.50
2018-02-01T08:45:24.261Z,70.00
2018-02-01T08:46:28.469Z,68.00
2018-02-01T08:47:32.715Z,55.00
2018-02-01T08:48:36.997Z,60.50
2018-02-01T08:49:41.197Z,86.00
2018-02-01T08:50:45.413Z,78.50
2018-02-01T08:51:49.634Z,68.50
2018-02-01T08:52:53.830Z,84.00
2018-02-01T08:54:02.128Z,79.50
2018-02-01T08:55:06.479Z,76.00
2018-02-01T08:56:10.818Z,89.50
2018-02-01T08:57:15.064Z,71.00
2018-02-01T08:58:19.331Z,86.00
2018-02-01T08:59:24.770Z,95.50
2018-02-01T09:00:29.441Z,95.00
2018-02-01T09:01:33.708Z,96.00
2018-02-01T09:02:38.666Z,78.00
2018-02-01T09:03:42.955Z,90.50
2018-02-01T09:04:47.169Z,73.50
2018-02-01T09:05:51.474Z,83.00
2018-02-01T09:06:55.796Z,89.50
2018-02-01T09:07:59.949Z,99.00
2018-02-01T09:09:04.348Z,87.50
2018-02-01T09:10:08.576Z,71.50
2018-02-01T09:11:12.931Z,91.50
2018-02-01T09:12:17.513Z,64.50
2018-02-01T09:13:21.717Z,75.50
2018-02-01T09:14:26.422Z,86.00
2018-02-01T09:15:30.972Z,92.50
2018-02-01T09:16:35.221Z,73.50
2018-02-01T09:17:39.670Z,74.50
2018-02-01T09:18:43.857Z,80.50
2018-02-01T09:19:48.157Z,85.50
2018-02-01T09:20:52.306Z,66.00
2018-02-01T09:21:56.570Z,78.00
2018-02-01T09:23:00.887Z,70.00
2018-02-01T09:24:05.413Z,91.50
2018-02-01T09:25:09.638Z,85.00
2018-02-01T09:26:13.971Z,94.00
2018-02-01T09:27:18.237Z,78.50
2018-02-01T09:28:22.491Z,72.50
2018-02-01T09:29:27.504Z,95.50
2018-02-01T09:30:32.423Z,89.00
2018-02-01T09:31:36.726Z,91.50
2018-02-01T09:32:40.998Z,85.50
2018-02-01T09:33:45.180Z,50.00
2018-02-01T09:34:49.425Z,67.00
2018-02-01T09:35:53.609Z,77.00
2018-02-01T09:36:58.365Z,67.00
2018-02-01T09:38:02.685Z,72.50
2018-02-01T09:39:07.139Z,72.50
2018-02-01T09:40:11.433Z,79.50
2018-02-01T09:41:15.662Z,73.50
2018-02-01T09:42:19.895Z,74.00
2018-02-01T09:43:25.051Z,91.00
2018-02-01T09:44:29.398Z,83.00
2018-02-01T09:45:33.858Z,103.00
2018-02-01T09:46:38.977Z,85.50
2018-02-01T09:47:43.242Z,66.00
2018-02-01T09:48:48.742Z,87.00
2018-02-01T09:49:53.035Z,86.00
2018-02-01T09:50:57.361Z,75.50
2018-02-01T09:52:01.502Z,90.00
2018-02-01T09:53:05.669Z,87.00
2018-02-01T09:54:09.934Z,62.00
2018-02-01T09:55:14.497Z,85.50
2018-02-01T09:56:18.677Z,71.00
2018-02-01T09:57:22.929Z,74.00
2018-02-01T09:58:27.218Z,85.50
2018-02-01T09:59:31.405Z,74.50
2018-02-01T10:00:35.998Z,78.00
2018-02-01T10:01:40.217Z,87.50
2018-02-01T10:02:44.555Z,62.50
2018-02-01T10:03:48.739Z,55.50
2018-02-01T10:04:53.483Z,72.00
2018-02-01T10:05:57.759Z,94.00
2018-02-01T10:07:02.261Z,54.50
2018-02-01T10:08:06.552Z,58.50
2018-02-01T10:09:11.674Z,74.00
2018-02-01T10:10:16.033Z,75.00
2018-02-01T10:11:21.492Z,66.00
2018-02-01T10:12:26.293Z,65.50
2018-02-01T10:13:31.457Z,67.00
2018-02-01T10:14:36.751Z,92.50
2018-02-01T10:15:41.162Z,57.50
2018-02-01T10:16:45.354Z,63.00
2018-02-01T10:17:49.554Z,75.00
2018-02-01T10:18:54.016Z,63.50
2018-02-01T10:19:58.564Z,52.00
2018-02-01T10:21:02.786Z,53.50
2018-02-01T10:22:07.069Z,70.50
2018-02-01T10:23:11.290Z,63.00
2018-02-01T10:24:15.619Z,65.00
2018-02-01T10:25:20.305Z,88.00
2018-02-01T10:26:24.859Z,70.50
2018-02-01T10:27:29.081Z,65.00
2018-02-01T10:28:33.329Z,67.50
2018-02-01T10:29:37.693Z,54.00
2018-02-01T10:30:42.278Z,91.00
2018-02-01T10:31:47.372Z,68.00
2018-02-01T10:32:51.564Z,61.50
2018-02-01T10:33:55.758Z,62.00
2018-02-01T10:35:00.029Z,56.00
2018-02-01T10:36:04.358Z,60.50
2018-02-01T10:37:08.514Z,58.50
2018-02-01T10:38:14.034Z,66.50
2018-02-01T10:39:18.225Z,71.50
2018-02-01T10:40:22.485Z,70.50
2018-02-01T10:41:26.824Z,67.00
2018-02-01T10:42:31.696Z,79.00
2018-02-01T10:43:37.114Z,62.00
2018-02-01T10:44:41.274Z,77.00
2018-02-01T10:45:46.377Z,67.00
2018-02-01T10:46:50.831Z,82.00
2018-02-01T10:47:55.333Z,80.00
2018-02-01T10:49:00.393Z,59.50
2018-02-01T10:50:04.616Z,94.00
2018-02-01T10:51:09.787Z,80.50
2018-02-01T10:52:14.107Z,56.00
2018-02-01T10:53:18.331Z,76.00
2018-02-01T10:54:23.609Z,94.50
2018-02-01T10:55:28.218Z,81.50
2018-02-01T10:56:32.548Z,82.00
2018-02-01T10:57:37.317Z,76.00
2018-02-01T10:58:41.599Z,76.00
2018-02-01T10:59:45.832Z,74.50
2018-02-01T11:00:50.910Z,63.00
2018-02-01T11:01:55.590Z,81.00
2018-02-01T11:02:59.814Z,73.00
2018-02-01T11:04:04.030Z,67.00
2018-02-01T11:05:08.303Z,64.50
2018-02-01T11:06:12.473Z,48.50
2018-02-01T11:07:16.722Z,79.00
2018-02-01T11:08:21.219Z,60.00
2018-02-01T11:09:25.493Z,48.00
2018-02-01T11:10:29.691Z,65.00
2018-02-01T11:11:34.085Z,57.50
2018-02-01T11:12:38.680Z,78.00
2018-02-01T11:13:43.509Z,58.00
2018-02-01T11:14:47.763Z,55.00
2018-02-01T11:15:51.988Z,84.00
2018-02-01T11:16:56.322Z,57.50
2018-02-01T11:18:00.525Z,75.50
2018-02-01T11:19:04.800Z,73.50
2018-02-01T11:20:09.547Z,85.00
2018-02-01T11:21:13.889Z,61.50
2018-02-01T11:22:18.082Z,63.50
2018-02-01T11:23:22.292Z,59.00
2018-02-01T11:24:26.675Z,83.00
2018-02-01T11:25:31.619Z,77.50
2018-02-01T11:26:36.035Z,77.00
2018-02-01T11:27:40.311Z,76.00
2018-02-01T11:28:45.214Z,58.00
2018-02-01T11:29:49.410Z,83.50
2018-02-01T11:30:53.840Z,74.50
2018-02-01T11:31:58.252Z,76.50
2018-02-01T11:33:02.773Z,67.00
2018-02-01T11:34:07.162Z,56.00
2018-02-01T11:35:11.496Z,71.00
2018-02-01T11:36:15.724Z,66.50
2018-02-01T11:37:20.313Z,59.50
2018-02-01T11:38:25.273Z,82.50
2018-02-01T11:39:30.106Z,57.00
2018-02-01T11:40:34.325Z,77.00
2018-02-01T11:41:38.573Z,65.50
2018-02-01T11:42:42.950Z,74.00
2018-02-01T11:43:48.595Z,70.50
2018-02-01T11:44:52.969Z,63.00
2018-02-01T11:45:57.565Z,73.50
2018-02-01T11:47:01.772Z,74.50
2018-02-01T11:48:05.960Z,73.50
2018-02-01T11:49:10.196Z,88.00
2018-02-01T11:50:14.517Z,76.00
2018-02-01T11:51:18.760Z,70.50
2018-02-01T11:52:23.083Z,73.50
2018-02-01T11:53:27.459Z,66.00
2018-02-01T11:54:31.851Z,82.50
2018-02-01T11:55:36.133Z,68.50
2018-02-01T11:56:41.658Z,63.00
2018-02-01T11:57:46.323Z,70.00
2018-02-01T11:58:50.729Z,57.50
2018-02-01T11:59:55.012Z,65.50
2018-02-01T12:00:59.530Z,66.50
2018-02-01T12:02:03.701Z,70.50
2018-02-01T12:03:07.930Z,81.50
2018-02-01T12:04:12.111Z,63.00
2018-02-01T12:05:16.440Z,66.50
2018-02-01T12:06:20.684Z,59.00
2018-02-01T12:07:25.462Z,74.50
2018-02-01T12:08:29.741Z,51.00
2018-02-01T12:09:34.108Z,51.00
2018-02-01T12:10:39.323Z,76.50
2018-02-01T12:11:43.664Z,56.50
2018-02-01T12:12:48.345Z,74.50
2018-02-01T12:13:52.968Z,70.50
2018-02-01T12:14:57.241Z,69.50
2018-02-01T12:16:02.710Z,70.00
2018-02-01T12:17:07.120Z,67.00
2018-02-01T12:18:11.714Z,72.00
2018-02-01T12:19:15.972Z,69.50
2018-02-01T12:20:20.173Z,81.50
2018-02-01T12:21:24.430Z,70.00
2018-02-01T12:22:28.812Z,73.00
2018-02-01T12:23:33.874Z,69.50
2018-02-01T12:24:38.201Z,65.00
2018-02-01T12:25:43.499Z,54.50
2018-02-01T12:26:48.359Z,47.50
2018-02-01T12:27:52.715Z,69.00
2018-02-01T12:28:57.033Z,67.50
2018-02-01T12:30:01.316Z,49.00
2018-02-01T12:31:05.995Z,48.00
2018-02-01T12:32:10.482Z,48.50
2018-02-01T12:33:14.874Z,68.50
2018-02-01T12:34:19.066Z,70.00
2018-02-01T12:35:23.620Z,69.00
2018-02-01T12:36:27.928Z,54.50
2018-02-01T12:37:32.184Z,56.50
2018-02-01T12:38:36.882Z,59.50
2018-02-01T12:39:41.288Z,63.00
2018-02-01T12:40:45.511Z,58.00
2018-02-01T12:41:49.836Z,56.50
2018-02-01T12:42:54.064Z,67.00
2018-02-01T12:43:58.849Z,62.00
2018-02-01T12:45:05.416Z,75.00
2018-02-01T12:46:09.918Z,62.00
2018-02-01T12:47:14.129Z,60.50
2018-02-01T12:48:18.373Z,54.50
2018-02-01T12:49:22.563Z,49.50
2018-02-01T12:50:26.955Z,70.00
2018-02-01T12:51:31.486Z,73.50
2018-02-01T12:52:35.782Z,67.50
2018-02-01T12:53:40.021Z,72.50
2018-02-01T12:54:45.028Z,60.50
2018-02-01T12:55:49.322Z,53.00
2018-02-01T12:56:53.654Z,63.00
2018-02-01T12:57:58.249Z,60.00
2018-02-01T12:59:02.707Z,64.00
2018-02-01T13:00:07.813Z,57.50
2018-02-01T13:01:12.429Z,65.00
2018-02-01T13:02:17.046Z,78.00
2018-02-01T13:03:21.255Z,89.00
2018-02-01T13:04:26.059Z,63.50
2018-02-01T13:05:30.772Z,74.00
2018-02-01T13:06:34.962Z,51.00
2018-02-01T13:07:39.965Z,69.00
2018-02-01T13:08:45.104Z,51.50
2018-02-01T13:09:49.566Z,59.50
2018-02-01T13:10:53.914Z,58.50
2018-02-01T13:11:58.393Z,72.00
2018-02-01T13:13:02.923Z,73.00
2018-02-01T13:14:07.184Z,61.50
2018-02-01T13:15:14.149Z,81.50
2018-02-01T13:16:19.399Z,64.50
2018-02-01T13:17:24.134Z,68.50
2018-02-01T13:18:28.546Z,76.50
2018-02-01T13:19:32.749Z,80.00
2018-02-01T13:20:37.262Z,59.50
2018-02-01T13:21:41.485Z,81.50
2018-02-01T13:22:46.555Z,51.50
2018-02-01T13:23:51.257Z,74.50
2018-02-01T13:24:55.557Z,52.50
2018-02-01T13:26:00.027Z,52.50
2018-02-01T13:27:04.323Z,74.50
2018-02-01T13:28:10.306Z,83.50
2018-02-01T13:29:14.860Z,64.50
2018-02-01T13:30:19.222Z,70.50
2018-02-01T13:31:27.259Z,81.50
2018-02-01T13:32:31.782Z,73.00
2018-02-01T13:33:36.413Z,59.50
2018-02-01T13:34:41.302Z,64.00
2018-02-01T13:35:45.564Z,66.50
2018-02-01T13:36:49.860Z,49.00
2018-02-01T13:37:54.030Z,66.50
2018-02-01T13:38:58.255Z,65.50
2018-02-01T13:40:02.689Z,56.00
2018-02-01T13:41:07.189Z,51.50
2018-02-01T13:42:11.614Z,86.50
2018-02-01T13:43:15.931Z,62.50
2018-02-01T13:44:20.371Z,68.00
2018-02-01T13:45:24.855Z,94.50
2018-02-01T13:46:29.426Z,66.00
2018-02-01T13:47:33.722Z,61.50
2018-02-01T13:48:38.105Z,68.00
2018-02-01T13:49:42.416Z,61.00
2018-02-01T13:50:48.477Z,66.50
2018-02-01T13:51:52.850Z,43.00
2018-02-01T13:52:57.134Z,66.50
2018-02-01T13:54:02.734Z,60.50
2018-02-01T13:55:07.346Z,61.00
2018-02-01T13:56:11.799Z,52.00